createdAt,value
2023-01-24T00:00:25.110Z,499.1
2023-01-24T00:01:27.389Z,498.3
2023-01-24T00:02:30.143Z,498.8
2023-01-24T00:03:33.072Z,498.6
2023-01-24T00:04:35.734Z,498.4
2023-01-24T00:05:38.241Z,498.6
2023-01-24T00:06:40.896Z,498.3
2023-01-24T00:07:43.428Z,498.6
2023-01-24T00:08:45.387Z,498.3
2023-01-24T00:09:47.584Z,498.3
2023-01-24T00:10:50.102Z,497.8
2023-01-24T00:11:52.815Z,498.1
2023-01-24T00:12:55.114Z,498
2023-01-24T00:13:58.152Z,497.6
2023-01-24T00:15:00.382Z,497.5
2023-01-24T00:16:03.335Z,497.5
2023-01-24T00:17:05.671Z,497.4
2023-01-24T00:18:08.237Z,497.5
2023-01-24T00:19:10.751Z,497.2
2023-01-24T00:20:12.686Z,497.3
2023-01-24T00:21:15.297Z,497.3
2023-01-24T00:22:17.804Z,497.1
2023-01-24T00:23:20.313Z,497.2
2023-01-24T00:24:22.918Z,496.7
2023-01-24T00:25:25.728Z,496.8
2023-01-24T00:26:28.017Z,496.9
2023-01-24T00:27:30.843Z,497
2023-01-24T00:28:33.347Z,496.8
2023-01-24T00:29:36.418Z,496.6
2023-01-24T00:30:38.913Z,496.1
2023-01-24T00:31:42.437Z,496.4
2023-01-24T00:32:44.713Z,496.6
2023-01-24T00:33:47.268Z,496.3
2023-01-24T00:34:49.225Z,496.7
2023-01-24T00:35:51.613Z,496.5
2023-01-24T00:36:54.203Z,495.9
2023-01-24T00:37:56.767Z,496.5
2023-01-24T00:38:59.292Z,496.5
2023-01-24T00:40:01.562Z,496.8
2023-01-24T00:41:03.830Z,496.6
2023-01-24T00:42:06.066Z,496.8
2023-01-24T00:43:08.448Z,496.6
2023-01-24T00:44:10.753Z,496.7
2023-01-24T00:45:13.651Z,496.9
2023-01-24T00:46:16.492Z,497
2023-01-24T00:47:19.006Z,497
2023-01-24T00:48:20.702Z,496.9
2023-01-24T00:49:23.580Z,496.3
2023-01-24T00:50:26.350Z,496.4
2023-01-24T00:51:29.403Z,496.2
2023-01-24T00:52:32.325Z,496.8
2023-01-24T00:53:34.882Z,496.6
2023-01-24T00:54:37.124Z,496.4
2023-01-24T00:55:39.634Z,496.2
2023-01-24T00:56:42.141Z,496.2
2023-01-24T00:57:44.834Z,496.1
2023-01-24T00:58:47.187Z,496.1
2023-01-24T00:59:49.674Z,495.6
2023-01-24T01:00:52.266Z,495.6
2023-01-24T01:01:54.789Z,495.7
2023-01-24T01:02:57.282Z,495.8
2023-01-24T01:03:59.798Z,495.8
2023-01-24T01:05:02.284Z,495.8
2023-01-24T01:06:04.836Z,495.8
2023-01-24T01:07:07.351Z,495.3
2023-01-24T01:08:09.599Z,495.5
2023-01-24T01:09:12.108Z,495
2023-01-24T01:10:14.640Z,495.2
2023-01-24T01:11:17.136Z,495.6
2023-01-24T01:12:19.661Z,494.8
2023-01-24T01:13:21.940Z,494.9
2023-01-24T01:14:24.750Z,494.4
2023-01-24T01:15:26.697Z,495
2023-01-24T01:16:29.706Z,494.9
2023-01-24T01:17:32.262Z,495.2
2023-01-24T01:18:34.786Z,495.1
2023-01-24T01:19:36.995Z,495
2023-01-24T01:20:39.505Z,494.7
2023-01-24T01:21:42.043Z,494.8
2023-01-24T01:22:44.270Z,494.7
2023-01-24T01:23:47.078Z,494.6
2023-01-24T01:24:49.663Z,495
2023-01-24T01:25:52.311Z,495
2023-01-24T01:26:54.812Z,495
2023-01-24T01:27:57.312Z,494.8
2023-01-24T01:28:59.842Z,495.1
2023-01-24T01:30:02.325Z,495.3
2023-01-24T01:31:05.606Z,495.1
2023-01-24T01:32:08.952Z,494.7
2023-01-24T01:33:11.488Z,495.4
2023-01-24T01:34:13.727Z,494.6
2023-01-24T01:35:16.264Z,495.1
2023-01-24T01:36:18.517Z,495.1
2023-01-24T01:37:20.974Z,495
2023-01-24T01:38:23.466Z,494.7
2023-01-24T01:39:25.964Z,495
2023-01-24T01:40:28.491Z,494.7
2023-01-24T01:41:30.988Z,494.6
2023-01-24T01:42:32.956Z,494.8
2023-01-24T01:43:35.725Z,495.1
2023-01-24T01:44:37.990Z,494.6
2023-01-24T01:45:40.684Z,495.1
2023-01-24T01:46:43.225Z,494.9
2023-01-24T01:47:46.224Z,495
2023-01-24T01:48:48.733Z,495.2
2023-01-24T01:49:51.227Z,495
2023-01-24T01:50:53.821Z,494.9
2023-01-24T01:51:56.334Z,494.8
2023-01-24T01:52:58.548Z,494.7
2023-01-24T01:54:01.111Z,495.2
2023-01-24T01:55:03.617Z,495.2
2023-01-24T01:56:06.170Z,494.9
2023-01-24T01:57:08.663Z,495.1
2023-01-24T01:58:10.899Z,494.9
2023-01-24T01:59:13.166Z,494.8
2023-01-24T02:00:15.409Z,494.8
2023-01-24T02:01:18.965Z,494.7
2023-01-24T02:02:21.878Z,494.7
2023-01-24T02:03:24.891Z,494.8
2023-01-24T02:04:27.135Z,495.1
2023-01-24T02:05:29.626Z,495
2023-01-24T02:06:32.158Z,494.6
2023-01-24T02:07:34.098Z,495
2023-01-24T02:08:36.336Z,495.1
2023-01-24T02:09:38.567Z,495.3
2023-01-24T02:10:40.239Z,495.2
2023-01-24T02:11:42.579Z,495.1
2023-01-24T02:12:44.823Z,495
2023-01-24T02:13:47.348Z,495.2
2023-01-24T02:14:49.579Z,495.9
2023-01-24T02:15:52.099Z,495.4
2023-01-24T02:16:54.490Z,495.1
2023-01-24T02:17:56.873Z,495
2023-01-24T02:18:59.898Z,494.8
2023-01-24T02:20:02.129Z,495.3
2023-01-24T02:21:03.979Z,495.4
2023-01-24T02:22:06.484Z,495.1
2023-01-24T02:23:08.988Z,495.3
2023-01-24T02:24:11.967Z,495
2023-01-24T02:25:14.510Z,495.1
2023-01-24T02:26:17.114Z,495.3
2023-01-24T02:27:19.677Z,495
2023-01-24T02:28:21.906Z,495.3
2023-01-24T02:29:24.627Z,495.3
2023-01-24T02:30:26.901Z,495
2023-01-24T02:31:29.767Z,494.9
2023-01-24T02:32:32.428Z,495.3
2023-01-24T02:33:34.964Z,495.6
2023-01-24T02:34:37.739Z,495.6
2023-01-24T02:35:40.005Z,495.6
2023-01-24T02:36:42.409Z,495.3
2023-01-24T02:37:44.973Z,495.7
2023-01-24T02:38:47.489Z,495.3
2023-01-24T02:39:50.037Z,495.3
2023-01-24T02:40:52.277Z,495
2023-01-24T02:41:54.490Z,495.3
2023-01-24T02:42:56.730Z,495.4
2023-01-24T02:43:59.317Z,495.2
2023-01-24T02:45:01.599Z,495.1
2023-01-24T02:46:04.134Z,495.1
2023-01-24T02:47:06.148Z,495.5
2023-01-24T02:48:08.910Z,495.5
2023-01-24T02:49:11.155Z,495.4
2023-01-24T02:50:13.881Z,495.3
2023-01-24T02:51:16.410Z,495.5
2023-01-24T02:52:18.914Z,495.6
2023-01-24T02:53:21.428Z,495.4
2023-01-24T02:54:23.664Z,495.6
2023-01-24T02:55:28.346Z,496.1
2023-01-24T02:56:30.666Z,496.1
2023-01-24T02:57:33.159Z,496.2
2023-01-24T02:58:35.686Z,495.9
2023-01-24T02:59:37.625Z,496.3
2023-01-24T03:00:39.881Z,496.1
2023-01-24T03:01:42.143Z,496.1
2023-01-24T03:02:44.853Z,496.2
2023-01-24T03:03:47.536Z,496.3
2023-01-24T03:04:49.789Z,496.1
2023-01-24T03:05:52.798Z,495.8
2023-01-24T03:06:54.765Z,495.8
2023-01-24T03:07:57.247Z,495.7
2023-01-24T03:08:59.207Z,496.1
2023-01-24T03:10:01.445Z,496.1
2023-01-24T03:11:03.678Z,495.5
2023-01-24T03:12:05.630Z,496
2023-01-24T03:13:07.846Z,496
2023-01-24T03:14:10.357Z,495.9
2023-01-24T03:15:12.854Z,496.1
2023-01-24T03:16:15.628Z,495.8
2023-01-24T03:17:18.155Z,495.8
2023-01-24T03:18:20.656Z,495.9
2023-01-24T03:19:23.184Z,495.8
2023-01-24T03:20:25.435Z,495.6
2023-01-24T03:21:28.411Z,495.7
2023-01-24T03:22:30.629Z,495.2
2023-01-24T03:23:33.157Z,495.3
2023-01-24T03:24:35.697Z,495.4
2023-01-24T03:25:38.206Z,495.4
2023-01-24T03:26:40.385Z,495.1
2023-01-24T03:27:42.632Z,495.2
2023-01-24T03:28:44.870Z,494.7
2023-01-24T03:29:47.383Z,494.8
2023-01-24T03:30:49.890Z,494.7
2023-01-24T03:31:53.063Z,494.4
2023-01-24T03:32:55.566Z,494.4
2023-01-24T03:33:58.116Z,494.4
2023-01-24T03:35:00.456Z,494.3
2023-01-24T03:36:02.835Z,494.3
2023-01-24T03:37:05.906Z,494.6
2023-01-24T03:38:08.119Z,494.2
2023-01-24T03:39:10.642Z,494.4
2023-01-24T03:40:13.216Z,494
2023-01-24T03:41:15.424Z,494
2023-01-24T03:42:17.937Z,493.8
2023-01-24T03:43:20.139Z,494
2023-01-24T03:44:22.375Z,493.8
2023-01-24T03:45:25.936Z,493.9
2023-01-24T03:46:28.427Z,493.3
2023-01-24T03:47:31.023Z,492.9
2023-01-24T03:48:33.285Z,492.8
2023-01-24T03:49:35.513Z,492.7
2023-01-24T03:50:37.853Z,492.8
2023-01-24T03:51:40.088Z,492.5
2023-01-24T03:52:43.322Z,492.5
2023-01-24T03:53:45.395Z,492.2
2023-01-24T03:54:47.639Z,492.5
2023-01-24T03:55:50.247Z,492.4
2023-01-24T03:56:52.934Z,492.2
2023-01-24T03:57:55.467Z,492.6
2023-01-24T03:58:57.853Z,492.5
2023-01-24T04:00:00.377Z,492.3
2023-01-24T04:01:03.248Z,492.1
2023-01-24T04:02:05.773Z,491.9
2023-01-24T04:03:08.033Z,492.1
2023-01-24T04:04:10.254Z,492.1
2023-01-24T04:05:12.780Z,492.2
2023-01-24T04:06:15.444Z,491.6
2023-01-24T04:08:23.312Z,492
2023-01-24T04:09:25.818Z,492.1
2023-01-24T04:10:28.327Z,492.5
2023-01-24T04:11:30.289Z,492.5
2023-01-24T04:12:32.838Z,492.6
2023-01-24T04:13:35.059Z,492.6
2023-01-24T04:14:37.583Z,492.8
2023-01-24T04:15:40.101Z,492.5
2023-01-24T04:16:42.872Z,493
2023-01-24T04:17:45.174Z,493
2023-01-24T04:18:47.666Z,493.4
2023-01-24T04:19:50.173Z,493
2023-01-24T04:20:52.416Z,492.8
2023-01-24T04:21:54.748Z,492.8
2023-01-24T04:22:57.258Z,493
2023-01-24T04:24:00.497Z,493.3
2023-01-24T04:25:02.500Z,493
2023-01-24T04:26:05.036Z,492.9
2023-01-24T04:27:07.532Z,493
2023-01-24T04:28:09.748Z,493.3
2023-01-24T04:29:11.672Z,493.1
2023-01-24T04:30:13.997Z,493.5
2023-01-24T04:31:17.172Z,493.4
2023-01-24T04:32:19.745Z,493.1
2023-01-24T04:33:22.248Z,492.7
2023-01-24T04:34:24.745Z,493.3
2023-01-24T04:35:27.761Z,493.2
2023-01-24T04:36:30.253Z,492.9
2023-01-24T04:37:32.582Z,493.1
2023-01-24T04:38:35.076Z,493.2
2023-01-24T04:39:38.037Z,493.1
2023-01-24T04:40:40.578Z,492.4
2023-01-24T04:41:43.090Z,492.8
2023-01-24T04:42:45.627Z,492.8
2023-01-24T04:43:47.865Z,492.8
2023-01-24T04:44:49.801Z,492.9
2023-01-24T04:45:52.223Z,493
2023-01-24T04:46:54.672Z,493
2023-01-24T04:47:57.255Z,493
2023-01-24T04:48:59.595Z,493.2
2023-01-24T04:50:02.210Z,493.5
2023-01-24T04:51:04.704Z,492.7
2023-01-24T04:52:06.924Z,492.6
2023-01-24T04:53:09.550Z,492.8
2023-01-24T04:54:11.479Z,492.7
2023-01-24T04:55:14.471Z,493
2023-01-24T04:56:16.982Z,492.8
2023-01-24T04:57:19.219Z,492.6
2023-01-24T04:58:21.740Z,493
2023-01-24T04:59:24.355Z,493.3
2023-01-24T05:00:26.888Z,493
2023-01-24T05:01:29.396Z,493.4
2023-01-24T05:02:31.636Z,493.1
2023-01-24T05:03:34.176Z,492.8
2023-01-24T05:04:36.710Z,493
2023-01-24T05:05:39.232Z,493.3
2023-01-24T05:06:41.725Z,492.6
2023-01-24T05:07:44.261Z,492.6
2023-01-24T05:08:46.616Z,492.9
2023-01-24T05:09:48.575Z,492.5
2023-01-24T05:10:51.558Z,492.7
2023-01-24T05:11:53.823Z,492.2
2023-01-24T05:12:56.314Z,491.8
2023-01-24T05:13:58.570Z,491.8
2023-01-24T05:15:01.114Z,492
2023-01-24T05:16:03.352Z,491.9
2023-01-24T05:17:06.257Z,492.2
2023-01-24T05:18:08.785Z,491.8
2023-01-24T05:19:11.285Z,492.1
2023-01-24T05:20:13.782Z,492.2
2023-01-24T05:21:16.686Z,492
2023-01-24T05:22:19.205Z,491.9
2023-01-24T05:23:21.711Z,491.8
2023-01-24T05:24:24.136Z,492.2
2023-01-24T05:25:26.730Z,492.1
2023-01-24T05:26:29.621Z,491.8
2023-01-24T05:27:31.877Z,491.9
2023-01-24T05:28:34.080Z,491.6
2023-01-24T05:29:36.582Z,491.2
2023-01-24T05:30:39.381Z,492
2023-01-24T05:31:42.325Z,491.6
2023-01-24T05:32:44.570Z,491
2023-01-24T05:33:47.112Z,491.8
2023-01-24T05:34:49.333Z,490.7
2023-01-24T05:35:51.830Z,490.3
2023-01-24T05:36:53.991Z,490.3
2023-01-24T05:37:56.248Z,490.7
2023-01-24T05:38:58.737Z,490.8
2023-01-24T05:40:01.368Z,491.1
2023-01-24T05:41:03.643Z,490.4
2023-01-24T05:42:06.619Z,490.9
2023-01-24T05:43:08.871Z,490.5
2023-01-24T05:44:12.114Z,490.4
2023-01-24T05:45:14.661Z,491
2023-01-24T05:46:17.534Z,489.9
2023-01-24T05:47:20.158Z,490.4
2023-01-24T05:48:22.675Z,490.1
2023-01-24T05:49:25.182Z,490.5
2023-01-24T05:50:27.688Z,490.3
2023-01-24T05:51:30.222Z,490.2
2023-01-24T05:52:32.711Z,489.9
2023-01-24T05:53:35.081Z,490
2023-01-24T05:54:37.386Z,489.6
2023-01-24T05:55:39.769Z,489.7
2023-01-24T05:56:42.407Z,489.9
2023-01-24T05:57:45.247Z,489.9
2023-01-24T05:58:47.764Z,489.6
2023-01-24T05:59:50.346Z,489.4
2023-01-24T06:00:52.593Z,489.2
2023-01-24T06:01:55.104Z,489.1
2023-01-24T06:02:58.269Z,489.2
2023-01-24T06:04:00.251Z,489.2
2023-01-24T06:05:02.517Z,488.8
2023-01-24T06:06:04.747Z,489.1
2023-01-24T06:07:07.260Z,488.9
2023-01-24T06:08:09.790Z,489.1
2023-01-24T06:09:12.506Z,489.1
2023-01-24T06:10:15.053Z,488.6
2023-01-24T06:11:17.725Z,489
2023-01-24T06:12:20.231Z,488.8
2023-01-24T06:13:23.222Z,488.8
2023-01-24T06:14:25.507Z,488.7
2023-01-24T06:15:28.101Z,488.8
2023-01-24T06:16:30.635Z,488.8
2023-01-24T06:17:33.138Z,488.5
2023-01-24T06:18:35.412Z,488.8
2023-01-24T06:19:37.938Z,489
2023-01-24T06:20:40.527Z,488.8
2023-01-24T06:21:43.043Z,488.6
2023-01-24T06:22:45.271Z,488.6
2023-01-24T06:23:48.038Z,488.5
2023-01-24T06:24:50.536Z,488.3
2023-01-24T06:25:53.281Z,488.5
2023-01-24T06:26:55.967Z,488
2023-01-24T06:27:58.241Z,488.3
2023-01-24T06:29:01.268Z,488.4
2023-01-24T06:30:04.464Z,487.7
2023-01-24T06:31:07.623Z,487.5
2023-01-24T06:32:10.288Z,487.8
2023-01-24T06:33:12.505Z,487.3
2023-01-24T06:34:14.996Z,487.1
2023-01-24T06:35:17.508Z,487.4
2023-01-24T06:36:19.716Z,487
2023-01-24T06:37:22.222Z,487.2
2023-01-24T06:38:24.754Z,487.2
2023-01-24T06:39:27.268Z,487
2023-01-24T06:40:29.768Z,486.5
2023-01-24T06:41:32.282Z,486.5
2023-01-24T06:42:34.816Z,486.2
2023-01-24T06:43:37.328Z,486.4
2023-01-24T06:44:40.196Z,486.4
2023-01-24T06:45:41.895Z,486.3
2023-01-24T06:46:44.678Z,486.1
2023-01-24T06:47:47.272Z,486.1
2023-01-24T06:48:49.771Z,486
2023-01-24T06:49:52.001Z,485.9
2023-01-24T06:50:54.539Z,485.8
2023-01-24T06:51:56.778Z,485.8
2023-01-24T06:52:58.990Z,485.7
2023-01-24T06:55:06.207Z,485.8
2023-01-24T06:56:08.715Z,485.7
2023-01-24T06:57:11.276Z,485.6
2023-01-24T06:58:13.915Z,485.8
2023-01-24T06:59:16.428Z,485.7
2023-01-24T07:00:19.445Z,485.7
2023-01-24T07:01:22.123Z,485.5
2023-01-24T07:02:24.681Z,486
2023-01-24T07:03:26.914Z,485.6
2023-01-24T07:04:29.051Z,485.2
2023-01-24T07:05:31.681Z,485
2023-01-24T07:06:34.186Z,485
2023-01-24T07:07:36.667Z,485.2
2023-01-24T07:08:39.321Z,485.2
2023-01-24T07:09:41.561Z,484.8
2023-01-24T07:10:44.099Z,484.9
2023-01-24T07:11:46.358Z,484.9
2023-01-24T07:12:48.583Z,484.5
2023-01-24T07:13:51.202Z,484.8
2023-01-24T07:14:53.726Z,484.6
2023-01-24T07:15:57.037Z,484.9
2023-01-24T07:16:59.706Z,485.1
2023-01-24T07:18:02.205Z,484.7
2023-01-24T07:19:04.729Z,485.1
2023-01-24T07:20:07.282Z,485.2
2023-01-24T07:21:09.686Z,484.9
2023-01-24T07:22:12.100Z,484.7
2023-01-24T07:23:14.592Z,484.9
2023-01-24T07:24:17.455Z,484.6
2023-01-24T07:25:19.813Z,484.6
2023-01-24T07:26:22.311Z,484.2
2023-01-24T07:27:24.536Z,484.3
2023-01-24T07:28:27.084Z,484
2023-01-24T07:29:29.642Z,484
2023-01-24T07:30:31.908Z,483.9
2023-01-24T07:32:40.032Z,484
2023-01-24T07:33:42.273Z,483.9
2023-01-24T07:34:44.563Z,483.5
2023-01-24T07:35:47.100Z,483.6
2023-01-24T07:36:49.707Z,483.2
2023-01-24T07:37:52.260Z,483.7
2023-01-24T07:38:54.482Z,483.4
2023-01-24T07:39:56.717Z,483.4
2023-01-24T07:40:58.954Z,483.8
2023-01-24T07:42:01.496Z,483.5
2023-01-24T07:43:03.783Z,483.9
2023-01-24T07:44:06.039Z,483.8
2023-01-24T07:45:08.575Z,483.7
2023-01-24T07:46:11.539Z,483.3
2023-01-24T07:47:14.087Z,483.3
2023-01-24T07:48:16.689Z,483.6
2023-01-24T07:49:18.926Z,483.4
2023-01-24T07:50:20.901Z,483.2
2023-01-24T07:51:22.854Z,483.1
2023-01-24T07:52:25.548Z,483.3
2023-01-24T07:53:27.797Z,483.2
2023-01-24T07:54:29.762Z,482.6
2023-01-24T07:55:31.989Z,482.7
2023-01-24T07:56:34.651Z,482.8
2023-01-24T07:57:37.186Z,482.3
2023-01-24T07:58:39.864Z,482.5
2023-01-24T07:59:42.438Z,482.1
2023-01-24T08:00:45.241Z,482
2023-01-24T08:01:47.680Z,482.4
2023-01-24T08:02:49.707Z,482
2023-01-24T08:03:52.428Z,482.2
2023-01-24T08:04:55.240Z,481.7
2023-01-24T08:05:57.820Z,481.7
2023-01-24T08:07:00.363Z,481.4
2023-01-24T08:08:02.596Z,480.9
2023-01-24T08:09:04.838Z,480.8
2023-01-24T08:10:07.397Z,481.1
2023-01-24T08:11:10.399Z,480.8
2023-01-24T08:12:12.910Z,480.7
2023-01-24T08:13:15.182Z,480.8
2023-01-24T08:14:17.430Z,480.7
2023-01-24T08:15:19.368Z,480.4
2023-01-24T08:16:22.141Z,480.4
2023-01-24T08:17:24.404Z,480.7
2023-01-24T08:18:26.923Z,480.7
2023-01-24T08:20:34.550Z,480.4
2023-01-24T08:21:36.783Z,480.6
2023-01-24T08:23:44.536Z,480.8
2023-01-24T08:24:47.153Z,480.1
2023-01-24T08:25:50.123Z,479.9
2023-01-24T08:26:52.419Z,480.3
2023-01-24T08:27:54.772Z,479.9
2023-01-24T08:28:57.298Z,479.8
2023-01-24T08:29:59.949Z,480
2023-01-24T08:31:02.606Z,479.8
2023-01-24T08:32:05.655Z,480
2023-01-24T08:33:07.972Z,479.8
2023-01-24T08:34:09.959Z,480.1
2023-01-24T08:35:12.220Z,479.8
2023-01-24T08:36:15.075Z,480
2023-01-24T08:37:17.346Z,480.1
2023-01-24T08:38:19.975Z,479.9
2023-01-24T08:41:33.682Z,480
2023-01-24T08:42:36.196Z,479.5
2023-01-24T08:43:38.777Z,479.6
2023-01-24T08:44:41.043Z,479.1
2023-01-24T08:45:43.294Z,479.8
2023-01-24T08:46:45.936Z,479.7
2023-01-24T08:47:48.201Z,479.5
2023-01-24T08:48:51.232Z,479.3
2023-01-24T08:49:53.744Z,479.1
2023-01-24T08:50:56.168Z,479
2023-01-24T08:51:58.218Z,479.3
2023-01-24T08:53:00.488Z,479
2023-01-24T08:54:03.019Z,479
2023-01-24T08:55:05.642Z,478.9
2023-01-24T08:56:07.902Z,478.9
2023-01-24T08:57:10.657Z,479
2023-01-24T08:58:12.931Z,478.8
2023-01-24T08:59:15.448Z,479
2023-01-24T09:00:17.688Z,478.6
2023-01-24T09:01:20.084Z,478.9
2023-01-24T09:02:23.102Z,478.9
2023-01-24T09:03:25.846Z,478.9
2023-01-24T09:04:28.430Z,478.8
2023-01-24T09:05:31.468Z,478.6
2023-01-24T09:06:33.783Z,478.1
2023-01-24T09:07:35.802Z,478.6
2023-01-24T09:08:38.791Z,478.3
2023-01-24T09:09:41.305Z,478.5
2023-01-24T09:10:43.846Z,478.8
2023-01-24T09:11:46.047Z,478.8
2023-01-24T09:12:48.315Z,478.5
2023-01-24T09:13:50.620Z,478.5
2023-01-24T09:14:52.868Z,478.3
2023-01-24T09:15:55.589Z,478
2023-01-24T09:16:58.145Z,478.1
2023-01-24T09:18:00.689Z,478.1
2023-01-24T09:19:03.262Z,478
2023-01-24T09:20:05.488Z,478
2023-01-24T09:21:07.452Z,477.5
2023-01-24T09:22:09.414Z,477.8
2023-01-24T09:23:12.062Z,477.5
2023-01-24T09:24:14.652Z,477.2
2023-01-24T09:25:16.917Z,477.6
2023-01-24T09:26:19.423Z,477.8
2023-01-24T09:27:21.995Z,477.1
2023-01-24T09:28:24.460Z,477.1
2023-01-24T09:29:26.416Z,477.1
2023-01-24T09:30:30.921Z,477
2023-01-24T09:31:33.846Z,476.7
2023-01-24T09:32:36.564Z,476.4
2023-01-24T09:34:43.902Z,476.3
2023-01-24T09:35:45.846Z,475.8
2023-01-24T09:36:48.353Z,476.6
2023-01-24T09:37:50.865Z,476.7
2023-01-24T09:39:58.440Z,476.5
2023-01-24T09:41:00.918Z,476.8
2023-01-24T09:43:07.935Z,476.6
2023-01-24T09:44:10.481Z,476.8
2023-01-24T09:45:12.739Z,476.7
2023-01-24T09:46:15.544Z,477
2023-01-24T09:47:17.798Z,477.6
2023-01-24T09:48:20.059Z,476.8
2023-01-24T09:49:22.317Z,477.1
2023-01-24T09:50:26.823Z,477
2023-01-24T09:51:29.656Z,476.9
2023-01-24T09:52:32.211Z,477.2
2023-01-24T09:53:34.473Z,476.7
2023-01-24T09:54:37.037Z,477.1
2023-01-24T09:55:39.754Z,476.7
2023-01-24T09:56:42.288Z,477
2023-01-24T09:57:44.799Z,477
2023-01-24T09:58:47.075Z,476.6
2023-01-24T09:59:49.992Z,476.9
2023-01-24T10:00:52.272Z,476.7
2023-01-24T10:01:55.022Z,476.8
2023-01-24T10:02:58.110Z,476.8
2023-01-24T10:04:00.718Z,476.8
2023-01-24T10:05:03.330Z,476.7
2023-01-24T10:06:05.882Z,476.8
2023-01-24T10:07:07.847Z,476.3
2023-01-24T10:08:10.098Z,476.7
2023-01-24T10:09:12.609Z,476.5
2023-01-24T10:10:14.872Z,476.7
2023-01-24T10:11:17.530Z,476.7
2023-01-24T10:12:20.053Z,476.3
2023-01-24T10:13:22.582Z,476.5
2023-01-24T10:14:25.191Z,476.5
2023-01-24T10:15:26.899Z,476.5
2023-01-24T10:16:29.139Z,476.7
2023-01-24T10:17:31.722Z,476.2
2023-01-24T10:18:34.240Z,476.3
2023-01-24T10:19:36.799Z,476.3
2023-01-24T10:20:39.338Z,476.4
2023-01-24T10:21:41.914Z,476.6
2023-01-24T10:22:44.487Z,476.6
2023-01-24T10:23:47.298Z,476.3
2023-01-24T10:24:49.893Z,475.7
2023-01-24T10:25:52.203Z,476.1
2023-01-24T10:26:54.871Z,475.6
2023-01-24T10:27:57.389Z,475.8
2023-01-24T10:28:59.351Z,476.2
2023-01-24T10:30:01.891Z,476.5
2023-01-24T10:31:05.176Z,476.3
2023-01-24T10:32:07.177Z,476.3
2023-01-24T10:33:09.427Z,476.8
2023-01-24T10:34:12.343Z,476.7
2023-01-24T10:35:14.910Z,476.7
2023-01-24T10:36:17.454Z,476.3
2023-01-24T10:37:20.005Z,476.5
2023-01-24T10:38:22.536Z,476.6
2023-01-24T10:39:25.048Z,476.4
2023-01-24T10:40:27.569Z,476.3
2023-01-24T10:41:29.805Z,476
2023-01-24T10:42:32.520Z,476.3
2023-01-24T10:43:35.042Z,476.4
2023-01-24T10:44:37.647Z,476.6
2023-01-24T10:45:39.851Z,476.7
2023-01-24T10:46:42.408Z,476.5
2023-01-24T10:47:44.718Z,476.7
2023-01-24T10:48:46.414Z,477
2023-01-24T10:49:48.943Z,476.9
2023-01-24T10:50:51.189Z,476.9
2023-01-24T10:51:53.859Z,477
2023-01-24T10:52:56.390Z,477.1
2023-01-24T10:53:58.065Z,477.3
2023-01-24T10:55:00.412Z,477.1
2023-01-24T10:56:02.639Z,477.6
2023-01-24T10:57:05.143Z,477.8
2023-01-24T10:58:07.494Z,477.9
2023-01-24T10:59:09.746Z,477.8
2023-01-24T11:00:12.444Z,478
2023-01-24T11:01:14.948Z,477.9
2023-01-24T11:02:17.527Z,477.9
2023-01-24T11:03:19.456Z,478
2023-01-24T11:04:21.684Z,478.1
2023-01-24T11:05:25.856Z,478.2
2023-01-24T11:06:27.846Z,478.2
2023-01-24T11:07:30.385Z,478.6
2023-01-24T11:08:32.633Z,478.2
2023-01-24T11:09:35.149Z,478.1
2023-01-24T11:10:37.792Z,478.2
2023-01-24T11:11:40.087Z,478.3
2023-01-24T11:12:42.632Z,478.3
2023-01-24T11:13:45.257Z,478.4
2023-01-24T11:14:47.784Z,478.2
2023-01-24T11:15:50.051Z,478.2
2023-01-24T11:16:52.730Z,478.3
2023-01-24T11:17:55.272Z,478.7
2023-01-24T11:18:57.818Z,478.5
2023-01-24T11:20:00.343Z,478.7
2023-01-24T11:21:02.282Z,478.9
2023-01-24T11:22:05.011Z,478.5
2023-01-24T11:23:07.775Z,478.9
2023-01-24T11:24:10.391Z,478.6
2023-01-24T11:25:12.946Z,478.6
2023-01-24T11:26:15.473Z,478.6
2023-01-24T11:27:17.792Z,479
2023-01-24T11:28:20.033Z,479.2
2023-01-24T11:29:22.634Z,479.2
2023-01-24T11:30:27.911Z,479.1
2023-01-24T11:31:31.178Z,479.2
2023-01-24T11:32:33.445Z,479.2
2023-01-24T11:33:36.013Z,479.9
2023-01-24T11:34:38.519Z,479.7
2023-01-24T11:35:41.022Z,479.7
2023-01-24T11:36:43.276Z,479.6
2023-01-24T11:37:46.044Z,479.7
2023-01-24T11:38:48.282Z,479.8
2023-01-24T11:39:50.867Z,480
2023-01-24T11:40:53.388Z,480.3
2023-01-24T11:41:55.898Z,480.4
2023-01-24T11:42:58.488Z,480.1
2023-01-24T11:44:00.831Z,480.3
2023-01-24T11:45:03.389Z,480.4
2023-01-24T11:46:05.900Z,480.4
2023-01-24T11:47:08.171Z,480.8
2023-01-24T11:48:10.422Z,480.5
2023-01-24T11:49:12.940Z,480.5
2023-01-24T11:50:15.454Z,480.2
2023-01-24T11:51:17.715Z,480.4
2023-01-24T11:52:19.958Z,480.2
2023-01-24T11:53:22.467Z,480.4
2023-01-24T11:54:24.987Z,480.6
2023-01-24T11:55:27.500Z,480.3
2023-01-24T11:56:29.507Z,480
2023-01-24T11:57:31.760Z,480.3
2023-01-24T11:58:34.032Z,480.4
2023-01-24T11:59:36.562Z,480.2
2023-01-24T12:00:38.902Z,480
2023-01-24T12:01:41.404Z,480.6
2023-01-24T12:02:44.285Z,480.5
2023-01-24T12:03:46.807Z,480.4
2023-01-24T12:04:49.067Z,480.7
2023-01-24T12:05:51.709Z,480.3
2023-01-24T12:06:54.408Z,480.4
2023-01-24T12:07:56.923Z,480.6
2023-01-24T12:08:59.495Z,480.5
2023-01-24T12:10:02.067Z,480.7
2023-01-24T12:12:09.557Z,480.6
2023-01-24T12:13:12.080Z,480.5
2023-01-24T12:14:14.366Z,480.5
2023-01-24T12:15:16.363Z,480.3
2023-01-24T12:16:19.303Z,480.3
2023-01-24T12:18:26.840Z,480.8
2023-01-24T12:19:29.498Z,480.9
2023-01-24T12:20:36.106Z,481.4
2023-01-24T12:21:38.721Z,481.4
2023-01-24T12:22:42.526Z,481.4
2023-01-24T12:23:45.374Z,481.9
2023-01-24T12:24:47.910Z,481.6
2023-01-24T12:25:50.261Z,481.4
2023-01-24T12:26:52.834Z,481.6
2023-01-24T12:27:55.160Z,481.5
2023-01-24T12:28:57.173Z,481.7
2023-01-24T12:29:59.681Z,481.9
2023-01-24T12:31:03.155Z,481.8
2023-01-24T12:32:06.341Z,481.7
2023-01-24T12:33:09.135Z,481.6
2023-01-24T12:34:11.143Z,481.8
2023-01-24T12:35:13.385Z,481.7
2023-01-24T12:36:16.281Z,482.1
2023-01-24T12:37:18.531Z,481.9
2023-01-24T12:38:21.180Z,482
2023-01-24T12:39:23.696Z,482.3
2023-01-24T12:40:26.997Z,482.3
2023-01-24T12:41:29.524Z,482.5
2023-01-24T12:42:31.768Z,482.5
2023-01-24T12:43:34.021Z,482.6
2023-01-24T12:44:36.268Z,482.6
2023-01-24T12:45:38.360Z,482.8
2023-01-24T12:46:41.213Z,482.9
2023-01-24T12:47:43.745Z,482.7
2023-01-24T12:48:46.277Z,482.4
2023-01-24T12:49:48.563Z,482.6
2023-01-24T12:50:50.887Z,482.7
2023-01-24T12:51:52.544Z,482.7
2023-01-24T12:52:55.084Z,483
2023-01-24T12:53:57.621Z,482.9
2023-01-24T12:54:59.606Z,483.4
2023-01-24T12:56:01.980Z,483.4
2023-01-24T12:57:04.233Z,483.3
2023-01-24T12:58:06.764Z,484
2023-01-24T12:59:09.281Z,483.6
2023-01-24T13:00:11.807Z,483.5
2023-01-24T13:01:14.328Z,483.8
2023-01-24T13:02:17.091Z,483.6
2023-01-24T13:03:19.834Z,483.8
2023-01-24T13:04:22.596Z,483.9
2023-01-24T13:05:25.140Z,483.7
2023-01-24T13:06:27.644Z,484.2
2023-01-24T13:07:29.962Z,483.2
2023-01-24T13:08:32.536Z,483.5
2023-01-24T13:09:35.038Z,483.7
2023-01-24T13:10:37.576Z,483.4
2023-01-24T13:11:39.859Z,483.6
2023-01-24T13:12:42.115Z,483.6
2023-01-24T13:13:44.404Z,483.7
2023-01-24T13:14:46.932Z,483.7
2023-01-24T13:15:49.191Z,483.9
2023-01-24T13:16:51.784Z,484.5
2023-01-24T13:17:54.315Z,483.7
2023-01-24T13:18:56.967Z,484.3
2023-01-24T13:19:59.053Z,484.4
2023-01-24T13:21:01.705Z,484
2023-01-24T13:22:04.212Z,484.1
2023-01-24T13:23:06.446Z,484.1
2023-01-24T13:24:09.628Z,483.6
2023-01-24T13:25:12.221Z,483.8
2023-01-24T13:26:15.519Z,484
2023-01-24T13:27:18.042Z,483.6
2023-01-24T13:28:20.268Z,483.9
2023-01-24T13:29:22.542Z,484
2023-01-24T13:30:24.536Z,484
2023-01-24T13:31:27.725Z,484
2023-01-24T13:32:30.634Z,484.4
2023-01-24T13:33:33.189Z,483.8
2023-01-24T13:34:35.917Z,484.2
2023-01-24T13:35:38.443Z,484.6
2023-01-24T13:36:40.512Z,484.5
2023-01-24T13:37:43.063Z,484.2
2023-01-24T13:38:45.743Z,483.9
2023-01-24T13:39:48.322Z,484.1
2023-01-24T13:40:50.275Z,483.8
2023-01-24T13:41:52.545Z,483.9
2023-01-24T13:42:54.780Z,483.9
2023-01-24T13:43:57.019Z,483.5